Pilar Observatorio, Argentina
Current Conditions -  °F | °C
As of 4:00 AM on Sunday 26 Oct 2014 (Local Time) from SACO Reporting Station
Clear Clear  
Wind Chill: 68°   Ceiling: Unl
Heat Index: 68°   Visibility: 6mi
Dew Point: 54°   Wind: 3mph
Humidity: 60%   Direction: 360°N
Pressure: 29.85"   Gusts: NA
Location:  31.67°S, 63.88°W
Report Text: SACO 260700Z 36003KT CAVOK 20/12 Q1011
Loading
Personal Weather Stations






























Interactive Weather Map
Tropical Storm Tracking
New forecast layout! Learn more

10-Day Weather Forecast

Advertisements
Track Severe Weather on mobile